createdAt,value
2018-12-23T00:01:56.735Z,16.90
2018-12-23T00:04:29.070Z,20.67
2018-12-23T00:07:01.391Z,18.73
2018-12-23T00:09:34.043Z,24.00
2018-12-23T00:12:06.371Z,20.03
2018-12-23T00:14:38.704Z,21.13
2018-12-23T00:17:11.019Z,22.03
2018-12-23T00:19:43.382Z,26.93
2018-12-23T00:22:15.707Z,22.53
2018-12-23T00:24:48.038Z,30.10
2018-12-23T00:27:20.367Z,23.10
2018-12-23T00:29:52.711Z,25.87
2018-12-23T00:32:25.026Z,22.73
2018-12-23T00:34:57.351Z,30.97
2018-12-23T00:37:29.670Z,33.80
2018-12-23T00:40:02.038Z,29.27
2018-12-23T00:42:34.347Z,26.97
2018-12-23T00:45:06.882Z,21.63
2018-12-23T00:47:39.237Z,24.53
2018-12-23T00:50:11.586Z,25.80
2018-12-23T00:52:43.914Z,30.57
2018-12-23T00:55:16.265Z,32.70
2018-12-23T00:57:48.579Z,25.90
2018-12-23T01:00:20.926Z,24.27
2018-12-23T01:02:53.241Z,32.47
2018-12-23T01:05:28.881Z,22.37
2018-12-23T01:07:59.868Z,24.77
2018-12-23T01:10:32.199Z,19.23
2018-12-23T01:13:04.537Z,26.37
2018-12-23T01:15:36.879Z,31.40
2018-12-23T01:18:09.234Z,27.73
2018-12-23T01:20:41.562Z,24.37
2018-12-23T01:23:14.282Z,25.60
2018-12-23T01:25:46.621Z,36.17
2018-12-23T01:28:18.944Z,23.23
2018-12-23T01:30:51.264Z,26.83
2018-12-23T01:33:23.583Z,25.97
2018-12-23T01:35:55.916Z,27.63
2018-12-23T01:38:28.277Z,27.93
2018-12-23T01:41:00.883Z,28.07
2018-12-23T01:43:33.286Z,23.53
2018-12-23T01:46:05.647Z,29.57
2018-12-23T01:48:38.383Z,25.50
2018-12-23T01:51:10.688Z,22.90
2018-12-23T01:53:42.998Z,29.70
2018-12-23T01:56:15.324Z,34.33
2018-12-23T01:58:47.638Z,34.33
2018-12-23T02:01:19.958Z,31.53
2018-12-23T02:04:34.832Z,29.47
2018-12-23T02:07:18.084Z,28.80
2018-12-23T02:10:10.291Z,34.30
2018-12-23T02:13:02.454Z,31.07
2018-12-23T02:15:54.895Z,32.20
2018-12-23T02:18:40.075Z,33.63
2018-12-23T02:21:25.112Z,31.97
2018-12-23T02:24:09.880Z,29.00
2018-12-23T02:26:54.920Z,38.00
2018-12-23T02:29:39.704Z,30.07
2018-12-23T02:32:24.256Z,31.73
2018-12-23T02:35:09.239Z,31.33
2018-12-23T02:37:53.931Z,26.87
2018-12-23T02:40:39.033Z,30.87
2018-12-23T02:43:23.959Z,37.63
2018-12-23T02:46:09.292Z,32.13
2018-12-23T02:48:54.283Z,27.97
2018-12-23T02:51:38.900Z,33.87
2018-12-23T02:54:23.643Z,34.43
2018-12-23T02:57:08.492Z,24.43
2018-12-23T02:59:53.008Z,28.23
2018-12-23T03:02:37.822Z,26.60
2018-12-23T03:05:22.789Z,29.17
2018-12-23T03:08:07.416Z,36.77
2018-12-23T03:10:52.139Z,35.20
2018-12-23T03:13:37.646Z,26.70
2018-12-23T03:16:22.293Z,30.80
2018-12-23T03:19:07.757Z,38.40
2018-12-23T03:21:52.306Z,37.80
2018-12-23T03:24:37.366Z,32.17
2018-12-23T03:27:22.540Z,30.20
2018-12-23T03:30:07.475Z,39.17
2018-12-23T03:32:52.413Z,30.37
2018-12-23T03:35:37.372Z,31.97
2018-12-23T03:38:21.876Z,27.67
2018-12-23T03:41:06.528Z,38.10
2018-12-23T03:43:51.294Z,31.03
2018-12-23T03:46:35.873Z,40.93
2018-12-23T03:49:21.237Z,31.77
2018-12-23T03:51:54.240Z,30.27
2018-12-23T03:54:46.431Z,48.77
2018-12-23T03:57:38.621Z,33.40
2018-12-23T04:00:30.789Z,33.37
2018-12-23T04:03:23.001Z,37.10
2018-12-23T04:06:24.251Z,34.87
2018-12-23T04:09:09.091Z,34.00
2018-12-23T04:12:01.547Z,39.87
2018-12-23T04:14:53.747Z,31.73
2018-12-23T04:17:45.966Z,29.67
2018-12-23T04:20:30.753Z,34.13
2018-12-23T04:23:15.728Z,33.53
2018-12-23T04:26:00.345Z,31.60
2018-12-23T04:28:45.459Z,33.87
2018-12-23T04:31:30.006Z,34.43
2018-12-23T04:34:14.594Z,44.00
2018-12-23T04:36:59.400Z,24.33
2018-12-23T04:39:42.628Z,24.83
2018-12-23T04:42:34.817Z,32.47
2018-12-23T04:45:26.986Z,28.30
2018-12-23T04:48:19.185Z,31.43
2018-12-23T04:51:11.360Z,38.43
2018-12-23T04:54:03.994Z,23.30
2018-12-23T04:56:56.164Z,25.43
2018-12-23T04:59:48.360Z,29.80
2018-12-23T05:02:40.536Z,28.27
2018-12-23T05:05:32.719Z,32.83
2018-12-23T05:08:24.919Z,28.53
2018-12-23T05:11:17.106Z,32.27
2018-12-23T05:14:09.296Z,25.60
2018-12-23T05:17:01.459Z,21.63
2018-12-23T05:19:46.690Z,28.27
2018-12-23T05:22:31.420Z,32.90
2018-12-23T05:25:16.036Z,29.80
2018-12-23T05:28:00.886Z,24.70
2018-12-23T05:30:45.789Z,22.77
2018-12-23T05:33:30.595Z,40.63
2018-12-23T05:36:15.340Z,26.87
2018-12-23T05:39:00.065Z,29.83
2018-12-23T05:41:44.643Z,25.90
2018-12-23T05:44:29.690Z,24.07
2018-12-23T05:47:14.340Z,26.80
2018-12-23T05:49:59.493Z,30.50
2018-12-23T05:52:44.055Z,20.67
2018-12-23T05:55:28.860Z,27.50
2018-12-23T05:58:13.480Z,22.83
2018-12-23T06:00:58.266Z,25.23
2018-12-23T06:03:42.803Z,26.33
2018-12-23T06:06:27.460Z,23.07
2018-12-23T06:09:12.040Z,25.97
2018-12-23T06:11:56.728Z,21.87
2018-12-23T06:14:40.008Z,32.60
2018-12-23T06:17:32.201Z,31.40
2018-12-23T06:20:16.788Z,23.47
2018-12-23T06:23:01.685Z,26.70
2018-12-23T06:25:44.961Z,25.90
2018-12-23T06:28:37.140Z,24.40
2018-12-23T06:31:29.335Z,31.73
2018-12-23T06:34:21.511Z,24.53
2018-12-23T06:37:13.717Z,24.23
2018-12-23T06:40:05.914Z,24.40
2018-12-23T06:42:58.088Z,26.30
2018-12-23T06:45:50.264Z,28.77
2018-12-23T06:48:42.452Z,23.37
2018-12-23T06:51:34.912Z,23.93
2018-12-23T06:54:27.124Z,30.53
2018-12-23T06:57:19.327Z,23.50
2018-12-23T07:00:11.504Z,22.33
2018-12-23T07:03:03.697Z,27.97
2018-12-23T07:05:55.872Z,30.27
2018-12-23T07:08:48.064Z,30.33
2018-12-23T07:11:40.242Z,20.63
2018-12-23T07:14:32.431Z,17.13
2018-12-23T07:17:24.607Z,25.20
2018-12-23T07:20:09.341Z,23.57
2018-12-23T07:22:54.212Z,21.20
2018-12-23T07:25:38.812Z,20.77
2018-12-23T07:28:24.134Z,28.53
2018-12-23T07:31:09.187Z,20.40
2018-12-23T07:33:54.297Z,19.23
2018-12-23T07:36:39.261Z,24.63
2018-12-23T07:39:23.736Z,23.20
2018-12-23T07:42:08.452Z,18.03
2018-12-23T07:44:53.047Z,26.63
2018-12-23T07:47:37.683Z,22.83
2018-12-23T07:50:22.517Z,20.03
2018-12-23T07:53:07.240Z,21.53
2018-12-23T07:55:51.760Z,22.63
2018-12-23T07:58:36.315Z,20.27
2018-12-23T08:01:20.955Z,19.03
2018-12-23T08:04:05.668Z,24.30
2018-12-23T08:06:50.755Z,19.83
2018-12-23T08:09:35.739Z,15.17
2018-12-23T08:12:20.556Z,15.90
2018-12-23T08:15:05.128Z,20.70
2018-12-23T08:17:50.162Z,15.70
2018-12-23T08:20:34.814Z,16.77
2018-12-23T08:23:20.905Z,26.63
2018-12-23T08:26:05.708Z,19.13
2018-12-23T08:28:50.322Z,22.57
2018-12-23T08:31:35.426Z,23.40
2018-12-23T08:34:20.282Z,21.80
2018-12-23T08:37:04.953Z,19.83
2018-12-23T08:39:50.092Z,16.93
2018-12-23T08:42:34.624Z,17.23
2018-12-23T08:45:19.354Z,18.63
2018-12-23T08:48:04.154Z,19.20
2018-12-23T08:50:48.940Z,15.93
2018-12-23T08:53:33.956Z,23.97
2018-12-23T08:56:18.545Z,16.03
2018-12-23T08:59:03.480Z,17.10
2018-12-23T09:01:48.865Z,17.43
2018-12-23T09:04:33.822Z,15.33
2018-12-23T09:07:19.531Z,11.83
2018-12-23T09:10:03.995Z,20.80
2018-12-23T09:12:49.219Z,22.33
2018-12-23T09:15:34.039Z,14.63
2018-12-23T09:18:19.685Z,12.43
2018-12-23T09:21:05.124Z,13.80
2018-12-23T09:23:50.196Z,15.27
2018-12-23T09:26:35.237Z,13.63
2018-12-23T09:29:20.205Z,17.13
2018-12-23T09:32:05.203Z,13.30
2018-12-23T09:34:49.771Z,11.80
2018-12-23T09:37:34.386Z,13.57
2018-12-23T09:40:19.344Z,15.30
2018-12-23T09:43:04.172Z,15.20
2018-12-23T09:45:48.836Z,14.60
2018-12-23T09:48:33.900Z,18.13
2018-12-23T09:51:19.026Z,15.97
2018-12-23T09:54:03.699Z,15.73
2018-12-23T09:56:48.676Z,17.53
2018-12-23T09:59:33.413Z,16.50
2018-12-23T10:02:18.816Z,13.50
2018-12-23T10:05:03.867Z,15.47
2018-12-23T10:07:48.445Z,12.27
2018-12-23T10:10:33.092Z,10.93
2018-12-23T10:13:17.981Z,12.60
2018-12-23T10:16:02.916Z,12.87
2018-12-23T10:18:47.371Z,16.30
2018-12-23T10:21:32.384Z,13.10
2018-12-23T10:24:17.094Z,16.87
2018-12-23T10:27:01.858Z,12.90
2018-12-23T10:29:46.642Z,14.00
2018-12-23T10:32:31.216Z,14.47
2018-12-23T10:35:16.271Z,12.33
2018-12-23T10:38:00.957Z,17.00
2018-12-23T10:40:46.140Z,14.00
2018-12-23T10:43:30.787Z,17.13
2018-12-23T10:46:15.892Z,14.47
2018-12-23T10:49:00.528Z,13.27
2018-12-23T10:51:45.381Z,13.87
2018-12-23T10:54:30.438Z,12.93
2018-12-23T10:57:15.253Z,12.20
2018-12-23T11:00:00.945Z,14.53
2018-12-23T11:02:46.320Z,11.77
2018-12-23T11:05:31.330Z,13.87
2018-12-23T11:08:16.169Z,16.10
2018-12-23T11:11:01.091Z,19.10
2018-12-23T11:13:46.152Z,15.77
2018-12-23T11:16:31.388Z,16.57
2018-12-23T11:19:16.186Z,17.60
2018-12-23T11:22:01.400Z,20.27
2018-12-23T11:24:44.677Z,15.90
2018-12-23T11:27:36.847Z,20.23
2018-12-23T11:30:29.064Z,26.43
2018-12-23T11:33:21.260Z,14.73
2018-12-23T11:36:13.434Z,17.93
2018-12-23T11:39:06.437Z,16.93
2018-12-23T11:41:58.620Z,11.63
2018-12-23T11:44:50.807Z,19.37
2018-12-23T11:47:42.988Z,17.63
2018-12-23T11:50:35.168Z,11.73
2018-12-23T11:53:27.635Z,13.90
2018-12-23T11:56:19.817Z,24.00
2018-12-23T11:59:12.027Z,21.93
2018-12-23T12:02:04.683Z,19.80
2018-12-23T12:04:57.290Z,20.83
2018-12-23T12:07:49.467Z,38.53
2018-12-23T12:10:41.681Z,27.20
2018-12-23T12:13:33.864Z,18.67
2018-12-23T12:16:26.054Z,15.70
2018-12-23T12:19:18.264Z,17.77
2018-12-23T12:22:10.735Z,20.20
2018-12-23T12:25:02.946Z,15.97
2018-12-23T12:27:55.408Z,12.27
2018-12-23T12:30:47.606Z,17.87
2018-12-23T12:33:39.784Z,15.83
2018-12-23T12:36:31.981Z,14.40
2018-12-23T12:39:24.163Z,16.60
2018-12-23T12:42:16.368Z,13.93
2018-12-23T12:45:09.273Z,13.90
2018-12-23T12:48:01.447Z,12.63
2018-12-23T12:50:53.625Z,18.13
2018-12-23T12:53:46.083Z,18.00
2018-12-23T12:56:38.278Z,17.80
2018-12-23T12:59:30.455Z,19.90
2018-12-23T13:02:22.648Z,13.83
2018-12-23T13:05:14.833Z,18.97
2018-12-23T13:08:07.019Z,16.80
2018-12-23T13:10:59.231Z,9.80
2018-12-23T13:13:51.415Z,11.27
2018-12-23T13:16:43.615Z,12.00
2018-12-23T13:19:35.819Z,11.93
2018-12-23T13:22:28.012Z,14.83
2018-12-23T13:25:20.547Z,17.43
2018-12-23T13:28:12.737Z,13.50
2018-12-23T13:31:04.923Z,12.83
2018-12-23T13:33:57.120Z,13.00
2018-12-23T13:36:49.304Z,14.63
2018-12-23T13:39:41.504Z,13.60
2018-12-23T13:42:52.882Z,16.77
2018-12-23T13:46:04.252Z,20.57
2018-12-23T13:49:15.631Z,14.37
2018-12-23T13:52:27.025Z,21.57
2018-12-23T13:55:38.414Z,14.87
2018-12-23T13:58:49.785Z,15.70
2018-12-23T14:02:01.150Z,14.30
2018-12-23T14:05:12.564Z,13.83
2018-12-23T14:08:23.949Z,11.43
2018-12-23T14:11:35.337Z,18.47
2018-12-23T14:14:27.802Z,10.80
2018-12-23T14:17:19.987Z,13.27
2018-12-23T14:20:05.020Z,16.00
2018-12-23T14:22:50.017Z,12.33
2018-12-23T14:25:34.804Z,13.63
2018-12-23T14:28:18.129Z,13.07
2018-12-23T14:31:10.323Z,13.57
2018-12-23T14:34:02.514Z,12.43
2018-12-23T14:36:54.687Z,18.33
2018-12-23T14:39:46.875Z,11.53
2018-12-23T14:42:39.071Z,12.13
2018-12-23T14:45:31.254Z,13.97
2018-12-23T14:48:23.428Z,12.90
2018-12-23T14:51:15.620Z,12.07
2018-12-23T14:54:07.801Z,13.60
2018-12-23T14:57:00.002Z,16.77
2018-12-23T14:59:52.181Z,10.27
2018-12-23T15:02:44.360Z,12.57
2018-12-23T15:05:36.800Z,10.53
2018-12-23T15:08:28.980Z,14.33
2018-12-23T15:11:21.176Z,15.77
2018-12-23T15:14:13.347Z,14.00
2018-12-23T15:17:05.544Z,12.60
2018-12-23T15:19:48.831Z,21.33
2018-12-23T15:22:41.316Z,17.70
2018-12-23T15:25:33.524Z,11.87
2018-12-23T15:28:25.689Z,17.37
2018-12-23T15:31:17.884Z,18.83
2018-12-23T15:34:10.064Z,14.20
2018-12-23T15:37:02.258Z,14.73
2018-12-23T15:39:54.456Z,13.47
2018-12-23T15:42:46.670Z,17.53
2018-12-23T15:45:38.850Z,18.03
2018-12-23T15:48:31.047Z,19.40
2018-12-23T15:51:23.238Z,15.03
2018-12-23T15:54:15.896Z,17.93
2018-12-23T15:57:08.087Z,12.23
2018-12-23T16:00:00.275Z,12.33
2018-12-23T16:02:52.483Z,11.93
2018-12-23T16:05:44.664Z,13.13
2018-12-23T16:08:36.856Z,10.17
2018-12-23T16:11:29.032Z,13.10
2018-12-23T16:14:21.233Z,16.93
2018-12-23T16:17:13.425Z,10.50
2018-12-23T16:19:58.325Z,15.40
2018-12-23T16:22:43.499Z,14.77
2018-12-23T16:25:28.688Z,11.70
2018-12-23T16:28:13.786Z,11.37
2018-12-23T16:30:58.829Z,13.30
2018-12-23T16:33:44.009Z,14.90
2018-12-23T16:36:28.612Z,13.63
2018-12-23T16:39:13.581Z,13.10
2018-12-23T16:41:58.219Z,12.30
2018-12-23T16:44:43.270Z,9.53
2018-12-23T16:47:28.372Z,9.43
2018-12-23T16:50:13.080Z,12.60
2018-12-23T16:55:45.582Z,10.80
2018-12-23T16:58:30.708Z,10.70
2018-12-23T17:01:15.860Z,8.10
2018-12-23T17:04:00.755Z,10.20
2018-12-23T17:06:45.540Z,11.57
2018-12-23T17:09:30.089Z,10.60
2018-12-23T17:12:14.840Z,10.83
2018-12-23T17:14:59.665Z,12.53
2018-12-23T17:17:44.401Z,16.73
2018-12-23T17:20:29.334Z,16.10
2018-12-23T17:23:14.170Z,12.30
2018-12-23T17:25:58.885Z,18.47
2018-12-23T17:28:43.364Z,13.13
2018-12-23T17:31:16.400Z,14.97
2018-12-23T17:34:08.584Z,16.40
2018-12-23T17:37:00.789Z,18.50
2018-12-23T17:39:52.964Z,20.40
2018-12-23T17:42:45.160Z,15.27
2018-12-23T17:45:37.343Z,21.97
2018-12-23T17:51:41.043Z,16.33
2018-12-23T17:54:33.235Z,16.87
2018-12-23T17:57:25.731Z,15.87
2018-12-23T18:00:17.952Z,16.00
2018-12-23T18:03:10.156Z,16.97
2018-12-23T18:06:02.363Z,17.03
2018-12-23T18:08:54.547Z,20.33
2018-12-23T18:11:46.716Z,21.90
2018-12-23T18:14:38.908Z,17.83
2018-12-23T18:17:31.118Z,23.30
2018-12-23T18:20:15.612Z,23.90
2018-12-23T18:23:00.148Z,22.20
2018-12-23T18:25:45.360Z,21.40
2018-12-23T18:28:30.012Z,22.00
2018-12-23T18:31:15.116Z,20.33
2018-12-23T18:34:00.022Z,21.03
2018-12-23T18:36:44.786Z,23.13
2018-12-23T18:39:29.459Z,21.10
2018-12-23T18:42:14.283Z,21.13
2018-12-23T18:44:59.204Z,19.83
2018-12-23T18:47:43.980Z,18.40
2018-12-23T18:50:29.157Z,17.93
2018-12-23T18:53:14.697Z,17.83
2018-12-23T18:55:59.941Z,24.73
2018-12-23T18:58:45.080Z,26.60
2018-12-23T19:01:29.582Z,29.37
2018-12-23T19:04:14.300Z,32.40
2018-12-23T19:06:59.197Z,28.93
2018-12-23T19:09:44.212Z,25.20
2018-12-23T19:12:28.749Z,21.97
2018-12-23T19:15:13.205Z,23.57
2018-12-23T19:17:58.225Z,25.07
2018-12-23T19:20:43.350Z,22.23
2018-12-23T19:23:28.052Z,26.90
2018-12-23T19:26:12.605Z,24.53
2018-12-23T19:28:57.341Z,21.07
2018-12-23T19:31:41.889Z,25.37
2018-12-23T19:34:33.848Z,26.43
2018-12-23T19:40:01.443Z,24.33
2018-12-23T19:42:46.328Z,24.73
2018-12-23T19:45:31.103Z,21.57
2018-12-23T19:48:16.254Z,21.20
2018-12-23T19:51:01.020Z,21.57
2018-12-23T19:53:46.061Z,21.27
2018-12-23T19:56:57.728Z,20.87
2018-12-23T20:00:09.133Z,18.30
2018-12-23T20:03:20.492Z,21.10
2018-12-23T20:06:31.876Z,21.50
2018-12-23T20:09:43.255Z,22.00
2018-12-23T20:12:54.616Z,19.77
2018-12-23T20:16:05.987Z,26.90
2018-12-23T20:19:17.351Z,15.20
2018-12-23T20:22:02.064Z,13.10
2018-12-23T20:24:46.585Z,13.87
2018-12-23T20:27:31.507Z,13.67
2018-12-23T20:30:16.977Z,11.30
2018-12-23T20:33:01.832Z,14.87
2018-12-23T20:35:46.736Z,9.63
2018-12-23T20:38:31.616Z,10.97
2018-12-23T20:41:16.745Z,10.93
2018-12-23T20:44:01.681Z,10.63
2018-12-23T20:46:46.287Z,8.17
2018-12-23T20:52:18.442Z,11.20
2018-12-23T20:57:50.502Z,10.13
2018-12-23T21:00:35.224Z,9.00
2018-12-23T21:03:20.920Z,4.23
2018-12-23T21:06:05.418Z,6.77
2018-12-23T21:08:51.830Z,10.00
2018-12-23T21:11:37.002Z,16.40
2018-12-23T21:14:21.801Z,14.93
2018-12-23T21:17:06.630Z,10.27
2018-12-23T21:19:51.104Z,7.30
2018-12-23T21:22:35.558Z,9.20
2018-12-23T21:25:20.506Z,7.87
2018-12-23T21:28:05.479Z,8.07
2018-12-23T21:30:50.153Z,12.07
2018-12-23T21:33:35.826Z,13.57
2018-12-23T21:36:26.867Z,12.77
2018-12-23T21:39:38.250Z,11.30
2018-12-23T21:42:49.600Z,9.40
2018-12-23T21:46:00.979Z,11.00
2018-12-23T21:49:12.356Z,11.13
2018-12-23T21:52:23.782Z,12.40
2018-12-23T21:55:35.173Z,9.70
2018-12-23T21:58:42.228Z,11.70
2018-12-23T22:01:53.610Z,11.03
2018-12-23T22:05:04.988Z,14.87
2018-12-23T22:08:16.351Z,10.03
2018-12-23T22:11:33.082Z,13.47
2018-12-23T22:14:21.632Z,11.77
2018-12-23T22:17:13.845Z,6.97
2018-12-23T22:19:57.152Z,4.70
2018-12-23T22:22:49.344Z,6.90
2018-12-23T22:25:41.535Z,5.40
2018-12-23T22:28:33.724Z,5.07
2018-12-23T22:31:25.901Z,5.77
2018-12-23T22:34:18.077Z,5.80
2018-12-23T22:37:10.260Z,5.20
2018-12-23T22:40:02.439Z,5.60
2018-12-23T22:42:54.647Z,3.93
2018-12-23T22:45:46.844Z,3.70
2018-12-23T22:48:39.154Z,6.57
2018-12-23T22:51:31.364Z,4.10
2018-12-23T22:54:23.804Z,4.83
2018-12-23T22:57:16.028Z,4.43
2018-12-23T23:00:08.207Z,3.80
2018-12-23T23:02:41.191Z,5.13
2018-12-23T23:05:33.375Z,3.83
2018-12-23T23:08:25.556Z,4.70
2018-12-23T23:11:17.795Z,4.40
2018-12-23T23:14:10.009Z,5.73
2018-12-23T23:17:02.729Z,5.10
2018-12-23T23:19:55.375Z,8.60
2018-12-23T23:22:47.570Z,6.27
2018-12-23T23:25:39.740Z,6.67
2018-12-23T23:28:31.935Z,8.90
2018-12-23T23:31:24.111Z,9.83
2018-12-23T23:34:16.286Z,8.70
2018-12-23T23:37:08.468Z,11.13
2018-12-23T23:40:00.660Z,12.40
2018-12-23T23:42:52.828Z,13.70
2018-12-23T23:45:45.024Z,13.23
2018-12-23T23:48:37.197Z,11.33
2018-12-23T23:51:29.390Z,16.40
2018-12-23T23:54:21.829Z,14.87
2018-12-23T23:57:14.246Z,12.33
